createdAt,value
2017-09-09T00:00:10.962Z,0
2017-09-09T00:01:20.992Z,0
2017-09-09T00:02:31.036Z,0
2017-09-09T00:03:41.385Z,0
2017-09-09T00:04:51.422Z,0
2017-09-09T00:06:01.762Z,0
2017-09-09T00:07:11.824Z,0
2017-09-09T00:08:21.841Z,0
2017-09-09T00:09:31.878Z,0
2017-09-09T00:10:42.215Z,0
2017-09-09T00:11:52.562Z,0
2017-09-09T00:13:02.968Z,0
2017-09-09T00:14:13.305Z,0
2017-09-09T00:15:25.006Z,0
2017-09-09T00:16:35.353Z,0
2017-09-09T00:17:45.699Z,0
2017-09-09T00:18:56.038Z,0
2017-09-09T00:20:06.058Z,0
2017-09-09T00:21:16.076Z,0
2017-09-09T00:22:26.108Z,0
2017-09-09T00:23:36.129Z,0
2017-09-09T00:24:46.221Z,0
2017-09-09T00:25:55.932Z,0
2017-09-09T00:27:06.269Z,0
2017-09-09T00:28:16.305Z,0
2017-09-09T00:29:26.333Z,0
2017-09-09T00:30:36.724Z,0
2017-09-09T00:31:47.106Z,0
2017-09-09T00:32:57.473Z,0
2017-09-09T00:34:07.499Z,0
2017-09-09T00:35:17.854Z,0
2017-09-09T00:36:28.210Z,0
2017-09-09T00:37:38.224Z,0
2017-09-09T00:38:48.253Z,0
2017-09-09T00:39:58.317Z,0
2017-09-09T00:41:08.653Z,0
2017-09-09T00:42:19.010Z,0
2017-09-09T00:43:29.347Z,0
2017-09-09T00:44:39.689Z,0
2017-09-09T00:45:49.718Z,0
2017-09-09T00:47:00.051Z,0
2017-09-09T00:48:10.386Z,0
2017-09-09T00:49:20.739Z,0
2017-09-09T00:50:31.065Z,0
2017-09-09T00:51:41.401Z,0
2017-09-09T00:52:51.757Z,0
2017-09-09T00:54:02.132Z,0
2017-09-09T00:55:12.479Z,0
2017-09-09T00:56:22.828Z,0
2017-09-09T00:57:33.165Z,0
2017-09-09T00:58:43.503Z,0
2017-09-09T00:59:53.847Z,0
2017-09-09T01:01:03.568Z,0
2017-09-09T01:02:13.913Z,0
2017-09-09T01:03:24.259Z,0
2017-09-09T01:04:34.967Z,0
2017-09-09T01:05:45.304Z,0
2017-09-09T01:06:55.654Z,0
2017-09-09T01:08:05.657Z,0
2017-09-09T01:09:16.024Z,0
2017-09-09T01:10:26.350Z,0
2017-09-09T01:11:36.436Z,0
2017-09-09T01:12:46.439Z,0
2017-09-09T01:13:56.782Z,0
2017-09-09T01:15:07.129Z,0
2017-09-09T01:16:17.134Z,0
2017-09-09T01:17:26.521Z,0
2017-09-09T01:18:36.848Z,0
2017-09-09T01:19:46.873Z,0
2017-09-09T01:20:56.900Z,0
2017-09-09T01:22:06.617Z,0
2017-09-09T01:23:16.679Z,0
2017-09-09T01:24:26.386Z,0
2017-09-09T01:25:36.739Z,0
2017-09-09T01:26:46.459Z,0
2017-09-09T01:27:56.796Z,0
2017-09-09T01:29:06.551Z,0
2017-09-09T01:30:16.893Z,0
2017-09-09T01:31:27.241Z,0
2017-09-09T01:32:37.578Z,0
2017-09-09T01:33:47.910Z,0
2017-09-09T01:35:00.761Z,0
2017-09-09T01:36:11.117Z,0
2017-09-09T01:37:21.464Z,0
2017-09-09T01:38:31.819Z,0
2017-09-09T01:39:41.817Z,0
2017-09-09T01:40:52.165Z,0
2017-09-09T01:42:02.497Z,0
2017-09-09T01:43:12.515Z,0
2017-09-09T01:44:22.863Z,0
2017-09-09T01:45:32.890Z,0
2017-09-09T01:46:43.275Z,0
2017-09-09T01:47:53.615Z,0
2017-09-09T01:49:03.952Z,0
2017-09-09T01:50:13.999Z,0
2017-09-09T01:51:24.348Z,0
2017-09-09T01:52:34.427Z,0
2017-09-09T01:53:44.754Z,0
2017-09-09T01:54:55.103Z,0
2017-09-09T01:56:05.449Z,0
2017-09-09T01:57:15.776Z,0
2017-09-09T01:58:25.800Z,0
2017-09-09T01:59:36.148Z,0
2017-09-09T02:00:46.495Z,0
2017-09-09T02:01:56.846Z,0
2017-09-09T02:03:06.863Z,0
2017-09-09T02:04:17.251Z,0
2017-09-09T02:05:27.599Z,0
2017-09-09T02:06:37.642Z,0
2017-09-09T02:07:47.666Z,0
2017-09-09T02:08:58.006Z,0
2017-09-09T02:10:08.414Z,0
2017-09-09T02:11:18.760Z,0
2017-09-09T02:12:28.805Z,0
2017-09-09T02:13:38.838Z,0
2017-09-09T02:14:48.862Z,0
2017-09-09T02:15:58.884Z,0
2017-09-09T02:17:09.223Z,0
2017-09-09T02:18:19.553Z,0
2017-09-09T02:19:29.913Z,0
2017-09-09T02:20:44.229Z,0
2017-09-09T02:21:54.807Z,0
2017-09-09T02:23:04.865Z,0
2017-09-09T02:24:16.096Z,0
2017-09-09T02:25:26.437Z,0
2017-09-09T02:26:36.773Z,0
2017-09-09T02:27:46.483Z,0
2017-09-09T02:28:56.814Z,0
2017-09-09T02:30:07.166Z,0
2017-09-09T02:31:17.182Z,0
2017-09-09T02:32:27.562Z,0
2017-09-09T02:33:37.954Z,0
2017-09-09T02:34:48.298Z,0
2017-09-09T02:35:58.327Z,0
2017-09-09T02:37:08.665Z,0
2017-09-09T02:38:19.027Z,0
2017-09-09T02:39:29.382Z,0
2017-09-09T02:40:39.721Z,0
2017-09-09T02:41:50.096Z,0
2017-09-09T02:43:00.122Z,0
2017-09-09T02:44:09.841Z,0
2017-09-09T02:45:20.246Z,0
2017-09-09T02:46:30.592Z,0
2017-09-09T02:47:43.002Z,0
2017-09-09T02:48:53.379Z,0
2017-09-09T02:50:03.730Z,0
2017-09-09T02:51:13.768Z,0
2017-09-09T02:52:24.121Z,0
2017-09-09T02:53:34.159Z,0
2017-09-09T02:54:44.498Z,0
2017-09-09T02:55:54.841Z,0
2017-09-09T02:57:05.177Z,0
2017-09-09T02:58:15.224Z,0
2017-09-09T02:59:25.567Z,0
2017-09-09T03:00:35.576Z,0
2017-09-09T03:01:45.919Z,0
2017-09-09T03:33:28.381Z,0
2017-09-09T03:34:38.721Z,0
2017-09-09T03:35:48.773Z,0
2017-09-09T03:36:59.101Z,0
2017-09-09T03:38:09.119Z,0
2017-09-09T03:39:19.145Z,0
2017-09-09T03:40:29.487Z,0
2017-09-09T03:41:39.831Z,0
2017-09-09T03:42:50.169Z,0
2017-09-09T03:44:00.501Z,0
2017-09-09T03:45:10.518Z,0
2017-09-09T03:46:20.867Z,0
2017-09-09T03:47:30.905Z,0
2017-09-09T03:48:41.253Z,0
2017-09-09T03:49:51.591Z,0
2017-09-09T03:51:01.932Z,0
2017-09-09T03:52:12.288Z,0
2017-09-09T03:53:22.310Z,0
2017-09-09T03:54:32.661Z,0
2017-09-09T03:55:43.014Z,0
2017-09-09T03:56:53.372Z,0
2017-09-09T03:58:03.727Z,0
2017-09-09T03:59:14.074Z,0
2017-09-09T04:00:23.771Z,0
2017-09-09T04:01:34.127Z,0
2017-09-09T04:02:44.518Z,0
2017-09-09T04:03:54.866Z,0
2017-09-09T04:05:05.219Z,0
2017-09-09T04:06:15.592Z,0
2017-09-09T04:07:25.951Z,0
2017-09-09T04:08:36.357Z,0
2017-09-09T04:09:46.734Z,0
2017-09-09T04:10:57.077Z,0
2017-09-09T04:12:07.096Z,0
2017-09-09T04:13:17.126Z,0
2017-09-09T04:14:27.457Z,0
2017-09-09T04:15:37.806Z,0
2017-09-09T04:16:48.140Z,0
2017-09-09T04:17:58.487Z,0
2017-09-09T04:19:08.520Z,0
2017-09-09T04:20:18.866Z,0
2017-09-09T04:21:29.212Z,0
2017-09-09T04:22:39.570Z,0
2017-09-09T04:23:49.917Z,0
2017-09-09T04:25:00.260Z,0
2017-09-09T04:26:10.594Z,0
2017-09-09T04:27:20.932Z,0
2017-09-09T04:28:30.962Z,0
2017-09-09T04:29:41.306Z,5
2017-09-09T04:30:51.645Z,5
2017-09-09T04:32:01.972Z,5
2017-09-09T04:33:12.331Z,5
2017-09-09T04:34:22.348Z,5
2017-09-09T04:35:32.707Z,5
2017-09-09T04:36:42.737Z,5
2017-09-09T04:37:52.792Z,5
2017-09-09T04:39:02.819Z,5
2017-09-09T04:40:13.175Z,5
2017-09-09T04:41:23.212Z,5
2017-09-09T04:42:33.563Z,10
2017-09-09T04:43:43.952Z,10
2017-09-09T04:44:54.322Z,10
2017-09-09T04:46:04.683Z,10
2017-09-09T04:47:14.721Z,15
2017-09-09T04:48:25.069Z,15
2017-09-09T04:49:35.415Z,10
2017-09-09T04:50:46.850Z,15
2017-09-09T04:51:57.184Z,15
2017-09-09T04:53:07.240Z,15
2017-09-09T04:54:17.262Z,15
2017-09-09T04:55:27.666Z,15
2017-09-09T04:56:37.701Z,15
2017-09-09T04:57:47.726Z,20
2017-09-09T04:58:57.747Z,15
2017-09-09T05:00:08.121Z,20
2017-09-09T05:01:18.504Z,20
2017-09-09T05:02:28.873Z,20
2017-09-09T05:03:39.220Z,20
2017-09-09T05:04:49.235Z,25
2017-09-09T05:05:59.570Z,25
2017-09-09T05:07:09.640Z,25
2017-09-09T05:08:19.977Z,25
2017-09-09T05:09:30.344Z,25
2017-09-09T05:10:40.385Z,20
2017-09-09T05:11:50.739Z,25
2017-09-09T05:13:00.814Z,25
2017-09-09T05:14:10.848Z,25
2017-09-09T05:15:20.892Z,25
2017-09-09T05:16:30.582Z,25
2017-09-09T05:17:40.918Z,30
2017-09-09T05:18:51.304Z,35
2017-09-09T05:20:01.008Z,30
2017-09-09T05:21:11.343Z,30
2017-09-09T05:22:21.369Z,35
2017-09-09T05:23:31.705Z,35
2017-09-09T05:24:41.746Z,40
2017-09-09T05:25:52.107Z,35
2017-09-09T05:27:02.135Z,40
2017-09-09T05:28:12.186Z,40
2017-09-09T05:29:22.525Z,40
2017-09-09T05:30:32.931Z,40
2017-09-09T05:31:43.288Z,40
2017-09-09T05:32:53.335Z,40
2017-09-09T05:34:03.042Z,40
2017-09-09T05:35:13.079Z,40
2017-09-09T05:36:23.156Z,40
2017-09-09T05:37:33.496Z,40
2017-09-09T05:38:43.534Z,45
2017-09-09T05:39:53.557Z,40
2017-09-09T05:41:03.902Z,40
2017-09-09T05:42:13.973Z,45
2017-09-09T05:43:24.327Z,45
2017-09-09T05:44:34.676Z,45
2017-09-09T05:45:45.025Z,50
2017-09-09T05:46:55.051Z,50
2017-09-09T05:48:05.432Z,50
2017-09-09T05:49:15.770Z,45
2017-09-09T05:50:26.128Z,45
2017-09-09T05:51:36.483Z,45
2017-09-09T05:52:46.814Z,45
2017-09-09T05:53:56.889Z,45
2017-09-09T05:55:07.230Z,55
2017-09-09T05:56:17.589Z,60
2017-09-09T05:57:27.634Z,60
2017-09-09T05:58:37.970Z,60
2017-09-09T05:59:48.850Z,60
2017-09-09T06:00:59.428Z,70
2017-09-09T06:02:09.773Z,75
2017-09-09T06:03:20.147Z,70
2017-09-09T06:04:30.177Z,65
2017-09-09T06:05:40.218Z,65
2017-09-09T06:06:50.572Z,60
2017-09-09T06:08:00.593Z,55
2017-09-09T06:09:10.951Z,65
2017-09-09T06:10:21.311Z,65
2017-09-09T06:11:31.712Z,60
2017-09-09T06:12:41.744Z,60
2017-09-09T06:13:52.088Z,65
2017-09-09T06:15:02.107Z,65
2017-09-09T06:16:12.125Z,70
2017-09-09T06:17:22.156Z,65
2017-09-09T06:18:32.515Z,70
2017-09-09T06:19:42.861Z,70
2017-09-09T06:20:52.888Z,70
2017-09-09T06:22:03.244Z,75
2017-09-09T06:23:13.589Z,85
2017-09-09T06:24:23.959Z,75
2017-09-09T06:25:34.311Z,75
2017-09-09T06:26:44.672Z,75
2017-09-09T06:27:55.000Z,75
2017-09-09T06:29:05.405Z,80
2017-09-09T06:30:15.751Z,110
2017-09-09T06:31:26.098Z,105
2017-09-09T06:32:36.464Z,95
2017-09-09T06:33:46.836Z,100
2017-09-09T06:34:57.179Z,100
2017-09-09T06:36:07.546Z,95
2017-09-09T06:37:17.883Z,90
2017-09-09T06:38:28.234Z,80
2017-09-09T06:39:40.046Z,80
2017-09-09T06:40:50.472Z,80
2017-09-09T06:42:00.829Z,85
2017-09-09T06:43:10.840Z,85
2017-09-09T06:44:20.892Z,95
2017-09-09T06:45:31.292Z,100
2017-09-09T06:46:41.683Z,95
2017-09-09T06:47:51.717Z,95
2017-09-09T06:49:02.066Z,105
2017-09-09T06:50:15.131Z,105
2017-09-09T06:51:25.499Z,130
2017-09-09T06:52:35.577Z,125
2017-09-09T06:53:48.273Z,135
2017-09-09T06:54:58.606Z,155
2017-09-09T06:56:08.630Z,165
2017-09-09T06:57:18.971Z,175
2017-09-09T06:58:29.304Z,175
2017-09-09T06:59:39.875Z,175
2017-09-09T07:00:49.893Z,155
2017-09-09T07:02:00.257Z,150
2017-09-09T07:03:10.641Z,145
2017-09-09T07:04:21.042Z,145
2017-09-09T07:05:31.391Z,160
2017-09-09T07:06:41.746Z,165
2017-09-09T07:07:51.760Z,175
2017-09-09T07:09:02.115Z,185
2017-09-09T07:10:12.203Z,170
2017-09-09T07:11:22.549Z,200
2017-09-09T07:12:32.925Z,180
2017-09-09T07:13:43.262Z,175
2017-09-09T07:14:53.609Z,165
2017-09-09T07:16:04.004Z,145
2017-09-09T07:17:14.358Z,155
2017-09-09T07:18:24.711Z,175
2017-09-09T07:19:35.062Z,190
2017-09-09T07:20:45.423Z,215
2017-09-09T07:21:55.782Z,220
2017-09-09T07:23:06.140Z,210
2017-09-09T07:24:16.500Z,210
2017-09-09T07:25:26.849Z,180
2017-09-09T07:26:37.208Z,200
2017-09-09T07:27:47.620Z,180
2017-09-09T07:28:57.966Z,190
2017-09-09T07:30:08.301Z,190
2017-09-09T07:31:18.649Z,165
2017-09-09T07:32:28.675Z,190
2017-09-09T07:33:39.104Z,190
2017-09-09T07:34:49.142Z,190
2017-09-09T07:35:59.159Z,155
2017-09-09T07:37:09.514Z,185
2017-09-09T07:38:19.851Z,185
2017-09-09T07:39:30.193Z,175
2017-09-09T07:40:40.572Z,175
2017-09-09T07:41:51.140Z,175
2017-09-09T07:43:01.499Z,175
2017-09-09T07:44:11.553Z,170
2017-09-09T07:45:21.661Z,170
2017-09-09T07:46:32.013Z,175
2017-09-09T07:47:42.379Z,175
2017-09-09T07:48:52.724Z,165
2017-09-09T07:50:03.077Z,175
2017-09-09T07:51:13.509Z,170
2017-09-09T07:52:23.857Z,175
2017-09-09T07:53:34.204Z,175
2017-09-09T07:54:44.234Z,175
2017-09-09T07:55:53.945Z,175
2017-09-09T07:57:04.043Z,175
2017-09-09T07:58:14.104Z,175
2017-09-09T07:59:24.138Z,180
2017-09-09T08:00:34.157Z,160
2017-09-09T08:01:44.206Z,175
2017-09-09T08:02:54.293Z,180
2017-09-09T08:04:04.638Z,140
2017-09-09T08:05:15.000Z,195
2017-09-09T08:06:25.332Z,175
2017-09-09T08:07:35.375Z,145
2017-09-09T08:08:45.402Z,180
2017-09-09T08:09:55.447Z,190
2017-09-09T08:11:08.192Z,205
2017-09-09T08:12:18.560Z,195
2017-09-09T08:13:28.902Z,190
2017-09-09T08:14:39.352Z,185
2017-09-09T08:15:49.384Z,195
2017-09-09T08:16:58.794Z,195
2017-09-09T08:18:09.169Z,185
2017-09-09T08:19:19.192Z,175
2017-09-09T08:20:28.997Z,180
2017-09-09T08:21:39.046Z,180
2017-09-09T08:22:49.069Z,180
2017-09-09T08:23:59.433Z,185
2017-09-09T08:25:09.790Z,180
2017-09-09T08:26:20.183Z,180
2017-09-09T08:27:30.547Z,185
2017-09-09T08:28:40.587Z,185
2017-09-09T08:29:50.952Z,185
2017-09-09T08:31:00.649Z,185
2017-09-09T08:32:11.040Z,190
2017-09-09T08:33:21.397Z,185
2017-09-09T08:34:31.785Z,185
2017-09-09T08:35:42.151Z,180
2017-09-09T08:36:52.508Z,185
2017-09-09T08:38:02.529Z,195
2017-09-09T08:39:12.557Z,190
2017-09-09T08:40:22.918Z,195
2017-09-09T08:41:32.964Z,190
2017-09-09T08:42:43.005Z,190
2017-09-09T08:43:54.508Z,190
2017-09-09T08:45:04.874Z,190
2017-09-09T08:46:15.213Z,180
2017-09-09T08:47:25.567Z,190
2017-09-09T08:48:35.603Z,190
2017-09-09T08:49:46.044Z,190
2017-09-09T08:50:56.385Z,190
2017-09-09T08:52:06.741Z,195
2017-09-09T08:53:16.797Z,195
2017-09-09T08:54:26.824Z,190
2017-09-09T08:55:36.961Z,190
2017-09-09T08:56:48.334Z,190
2017-09-09T08:57:58.698Z,190
2017-09-09T08:59:09.046Z,190
2017-09-09T09:00:19.407Z,190
2017-09-09T09:01:29.818Z,190
2017-09-09T09:02:39.861Z,190
2017-09-09T09:03:50.218Z,195
2017-09-09T09:05:00.274Z,195
2017-09-09T09:06:10.635Z,195
2017-09-09T09:07:20.989Z,195
2017-09-09T09:08:30.721Z,195
2017-09-09T09:09:41.066Z,195
2017-09-09T09:10:51.446Z,195
2017-09-09T09:12:01.827Z,195
2017-09-09T09:13:12.267Z,195
2017-09-09T09:14:22.649Z,195
2017-09-09T09:15:35.325Z,195
2017-09-09T09:16:45.389Z,195
2017-09-09T09:17:55.756Z,195
2017-09-09T09:19:06.161Z,195
2017-09-09T09:20:16.508Z,195
2017-09-09T09:21:26.885Z,195
2017-09-09T09:22:36.926Z,195
2017-09-09T09:23:46.651Z,195
2017-09-09T09:24:56.986Z,195
2017-09-09T09:26:07.359Z,195
2017-09-09T09:27:16.750Z,195
2017-09-09T09:28:27.114Z,195
2017-09-09T09:29:37.151Z,200
2017-09-09T09:30:47.556Z,205
2017-09-09T09:31:57.920Z,200
2017-09-09T09:33:08.286Z,200
2017-09-09T09:34:18.638Z,195
2017-09-09T09:35:28.667Z,205
2017-09-09T09:36:40.508Z,200
2017-09-09T09:37:50.858Z,200
2017-09-09T09:39:01.211Z,200
2017-09-09T09:40:12.101Z,200
2017-09-09T09:41:22.499Z,200
2017-09-09T09:42:32.867Z,200
2017-09-09T09:43:43.252Z,205
2017-09-09T09:44:53.601Z,205
2017-09-09T09:46:03.956Z,205
2017-09-09T09:47:14.301Z,205
2017-09-09T09:48:24.644Z,205
2017-09-09T09:49:34.991Z,205
2017-09-09T09:50:45.344Z,205
2017-09-09T09:51:57.249Z,205
2017-09-09T09:53:06.951Z,205
2017-09-09T09:54:17.404Z,205
2017-09-09T09:55:27.440Z,205
2017-09-09T09:56:37.471Z,205
2017-09-09T09:57:47.819Z,205
2017-09-09T09:58:58.171Z,205
2017-09-09T10:00:08.532Z,205
2017-09-09T10:01:18.877Z,205
2017-09-09T10:02:29.216Z,205
2017-09-09T10:03:39.577Z,210
2017-09-09T10:04:49.937Z,210
2017-09-09T10:06:00.339Z,210
2017-09-09T10:07:10.697Z,210
2017-09-09T10:08:21.064Z,210
2017-09-09T10:09:31.438Z,210
2017-09-09T10:10:41.492Z,210
2017-09-09T10:11:51.855Z,210
2017-09-09T10:13:02.212Z,210
2017-09-09T10:14:12.554Z,210
2017-09-09T10:15:22.906Z,210
2017-09-09T10:16:34.192Z,210
2017-09-09T10:17:44.277Z,210
2017-09-09T10:18:54.622Z,210
2017-09-09T10:20:04.982Z,210
2017-09-09T10:21:15.322Z,210
2017-09-09T10:22:25.357Z,210
2017-09-09T10:23:35.438Z,210
2017-09-09T10:24:45.779Z,210
2017-09-09T10:25:56.132Z,210
2017-09-09T10:27:07.139Z,210
2017-09-09T10:28:17.176Z,210
2017-09-09T10:29:27.620Z,210
2017-09-09T10:30:37.653Z,210
2017-09-09T10:31:48.060Z,210
2017-09-09T10:32:58.098Z,210
2017-09-09T10:34:08.459Z,210
2017-09-09T10:35:18.513Z,215
2017-09-09T10:36:28.854Z,215
2017-09-09T10:37:39.186Z,215
2017-09-09T10:38:49.552Z,215
2017-09-09T10:39:59.929Z,215
2017-09-09T10:41:10.268Z,215
2017-09-09T10:42:20.297Z,215
2017-09-09T10:43:30.645Z,215
2017-09-09T10:44:40.993Z,215
2017-09-09T10:45:51.347Z,215
2017-09-09T10:47:01.064Z,215
2017-09-09T10:48:11.098Z,215
2017-09-09T10:49:21.437Z,215
2017-09-09T10:50:31.789Z,215
2017-09-09T10:51:42.137Z,215
2017-09-09T10:52:52.478Z,215
2017-09-09T10:54:02.515Z,215
2017-09-09T10:55:12.566Z,215
2017-09-09T10:56:22.934Z,215
2017-09-09T10:57:32.967Z,215
2017-09-09T10:59:26.746Z,215
2017-09-09T11:00:37.144Z,215
2017-09-09T11:01:47.286Z,215
2017-09-09T11:02:57.704Z,215
2017-09-09T11:04:10.532Z,215
2017-09-09T11:05:22.599Z,215
2017-09-09T11:06:33.056Z,215
2017-09-09T11:07:43.439Z,215
2017-09-09T11:08:53.623Z,215
2017-09-09T11:10:04.132Z,215
2017-09-09T11:11:14.635Z,220
2017-09-09T11:12:25.020Z,220
2017-09-09T11:13:35.529Z,220
2017-09-09T11:14:46.048Z,220
2017-09-09T11:15:56.604Z,220
2017-09-09T11:17:07.149Z,225
2017-09-09T11:18:17.236Z,225
2017-09-09T11:19:27.799Z,225
2017-09-09T11:20:37.898Z,225
2017-09-09T11:21:48.341Z,225
2017-09-09T11:22:59.297Z,225
2017-09-09T11:24:09.675Z,225
2017-09-09T11:25:20.045Z,230
2017-09-09T11:26:30.409Z,225
2017-09-09T11:27:40.769Z,230
2017-09-09T11:28:51.175Z,225
2017-09-09T11:30:01.540Z,225
2017-09-09T11:31:11.891Z,225
2017-09-09T11:32:22.267Z,225
2017-09-09T11:33:32.620Z,230
2017-09-09T11:34:42.998Z,230
2017-09-09T11:35:53.739Z,230
2017-09-09T11:37:04.092Z,230
2017-09-09T11:38:14.454Z,230
2017-09-09T11:39:24.482Z,230
2017-09-09T11:40:34.901Z,230
2017-09-09T11:41:45.250Z,230
2017-09-09T11:42:56.965Z,230
2017-09-09T11:44:07.324Z,230
2017-09-09T11:45:17.920Z,230
2017-09-09T11:46:28.464Z,230
2017-09-09T11:47:38.497Z,230
2017-09-09T11:48:48.537Z,230
2017-09-09T11:49:58.949Z,235
2017-09-09T11:51:09.320Z,230
2017-09-09T11:52:19.415Z,230
2017-09-09T11:53:29.440Z,230
2017-09-09T11:54:39.791Z,235
2017-09-09T11:55:50.142Z,230
2017-09-09T11:57:00.506Z,235
2017-09-09T11:58:10.915Z,240
2017-09-09T11:59:20.993Z,235
2017-09-09T12:00:31.021Z,235
2017-09-09T12:01:41.387Z,235
2017-09-09T12:02:50.847Z,235
2017-09-09T12:04:00.933Z,235
2017-09-09T12:05:11.342Z,235
2017-09-09T12:06:23.921Z,235
2017-09-09T12:07:34.281Z,235
2017-09-09T12:08:44.695Z,235
2017-09-09T12:09:55.082Z,235
2017-09-09T12:11:05.465Z,235
2017-09-09T12:12:15.843Z,235
2017-09-09T12:13:26.217Z,235
2017-09-09T12:14:39.305Z,235
2017-09-09T12:15:49.712Z,235
2017-09-09T12:17:00.073Z,235
2017-09-09T12:18:12.289Z,235
2017-09-09T12:19:22.655Z,235
2017-09-09T12:20:33.008Z,235
2017-09-09T12:21:43.385Z,235
2017-09-09T12:22:53.808Z,230
2017-09-09T12:24:03.850Z,230
2017-09-09T12:25:14.212Z,230
2017-09-09T12:26:24.572Z,230
2017-09-09T12:27:34.633Z,230
2017-09-09T12:28:44.727Z,230
2017-09-09T12:29:56.295Z,230
2017-09-09T12:31:06.678Z,230
2017-09-09T12:32:17.051Z,230
2017-09-09T12:33:27.406Z,225
2017-09-09T12:34:37.765Z,225
2017-09-09T12:35:48.134Z,225
2017-09-09T12:36:57.849Z,225
2017-09-09T12:38:07.886Z,225
2017-09-09T12:39:18.260Z,225
2017-09-09T12:40:28.681Z,225
2017-09-09T12:41:39.040Z,225
2017-09-09T12:42:49.396Z,220
2017-09-09T12:43:59.421Z,220
2017-09-09T12:45:09.789Z,220
2017-09-09T12:46:20.197Z,220
2017-09-09T12:47:30.573Z,220
2017-09-09T12:48:40.928Z,220
2017-09-09T12:49:51.287Z,220
2017-09-09T12:51:03.854Z,220
2017-09-09T12:52:13.931Z,220
2017-09-09T12:53:24.281Z,215
2017-09-09T12:54:34.339Z,215
2017-09-09T12:55:44.057Z,215
2017-09-09T12:56:54.102Z,215
2017-09-09T12:58:04.482Z,215
2017-09-09T12:59:15.088Z,215
2017-09-09T13:00:25.460Z,215
2017-09-09T13:01:35.497Z,210
2017-09-09T13:02:45.542Z,215
2017-09-09T13:03:55.657Z,215
2017-09-09T13:05:06.009Z,215
2017-09-09T13:06:16.380Z,215
2017-09-09T13:07:26.518Z,210
2017-09-09T13:08:36.871Z,215
2017-09-09T13:09:47.265Z,210
2017-09-09T13:10:57.668Z,210
2017-09-09T13:12:08.029Z,210
2017-09-09T13:13:18.093Z,210
2017-09-09T13:14:28.455Z,210
2017-09-09T13:15:38.890Z,210
2017-09-09T13:16:48.945Z,210
2017-09-09T13:17:59.328Z,205
2017-09-09T13:19:10.510Z,210
2017-09-09T13:20:20.929Z,205
2017-09-09T13:21:31.301Z,210
2017-09-09T13:22:41.679Z,200
2017-09-09T13:23:52.057Z,200
2017-09-09T13:25:02.092Z,200
2017-09-09T13:26:14.525Z,200
2017-09-09T13:27:25.029Z,200
2017-09-09T13:28:35.089Z,200
2017-09-09T13:29:46.271Z,200
2017-09-09T13:30:58.582Z,200
2017-09-09T13:32:08.939Z,200
2017-09-09T13:33:25.860Z,200
2017-09-09T13:34:36.201Z,200
2017-09-09T13:35:46.263Z,200
2017-09-09T13:36:56.605Z,200
2017-09-09T13:38:06.644Z,200
2017-09-09T13:39:17.066Z,200
2017-09-09T13:40:27.108Z,200
2017-09-09T13:41:37.478Z,200
2017-09-09T13:42:47.521Z,200
2017-09-09T13:43:57.881Z,195
2017-09-09T13:45:08.288Z,200
2017-09-09T13:46:18.691Z,195
2017-09-09T13:47:29.062Z,195
2017-09-09T13:48:40.765Z,195
2017-09-09T13:49:51.147Z,195
2017-09-09T13:51:01.242Z,195
2017-09-09T13:52:11.614Z,195
2017-09-09T13:53:21.327Z,190
2017-09-09T13:54:35.490Z,190
2017-09-09T13:55:45.865Z,190
2017-09-09T13:56:55.925Z,190
2017-09-09T13:58:06.297Z,190
2017-09-09T13:59:16.657Z,195
2017-09-09T14:00:27.025Z,185
2017-09-09T14:01:39.579Z,185
2017-09-09T14:02:49.987Z,185
2017-09-09T14:04:00.343Z,185
2017-09-09T14:05:10.709Z,190
2017-09-09T14:06:21.073Z,185
2017-09-09T14:07:31.441Z,190
2017-09-09T14:08:41.530Z,180
2017-09-09T14:09:51.600Z,180
2017-09-09T14:11:02.544Z,180
2017-09-09T14:12:12.820Z,180
2017-09-09T14:13:23.176Z,180
2017-09-09T14:14:33.599Z,180
2017-09-09T14:15:43.661Z,180
2017-09-09T14:16:54.053Z,180
2017-09-09T14:18:04.417Z,175
2017-09-09T14:19:14.785Z,175
2017-09-09T14:20:25.168Z,175
2017-09-09T14:21:35.528Z,170
2017-09-09T14:22:45.903Z,170
2017-09-09T14:23:56.257Z,170
2017-09-09T14:25:06.605Z,170
2017-09-09T14:26:16.671Z,170
2017-09-09T14:27:26.729Z,170
2017-09-09T14:28:37.113Z,170
2017-09-09T14:29:47.470Z,165
2017-09-09T14:30:57.826Z,165
2017-09-09T14:32:08.248Z,165
2017-09-09T14:33:18.608Z,165
2017-09-09T14:34:28.981Z,165
2017-09-09T14:35:39.353Z,165
2017-09-09T14:36:49.733Z,160
2017-09-09T14:38:00.139Z,160
2017-09-09T14:39:10.216Z,160
2017-09-09T14:40:20.591Z,160
2017-09-09T14:41:30.959Z,155
2017-09-09T14:42:41.334Z,155
2017-09-09T14:43:51.389Z,155
2017-09-09T14:45:01.445Z,155
2017-09-09T14:46:11.495Z,155
2017-09-09T14:47:21.599Z,150
2017-09-09T14:48:31.963Z,150
2017-09-09T14:49:42.327Z,150
2017-09-09T14:50:52.356Z,150
2017-09-09T14:52:02.722Z,145
2017-09-09T14:53:13.083Z,145
2017-09-09T14:54:23.439Z,145
2017-09-09T14:55:33.485Z,145
2017-09-09T14:56:43.855Z,140
2017-09-09T14:57:54.228Z,140
2017-09-09T14:59:04.296Z,140
2017-09-09T15:00:15.708Z,140
2017-09-09T15:01:26.115Z,140
2017-09-09T15:02:36.499Z,140
2017-09-09T15:03:46.866Z,140
2017-09-09T15:04:56.900Z,140
2017-09-09T15:06:07.271Z,140
2017-09-09T15:07:18.770Z,140
2017-09-09T15:08:29.146Z,140
2017-09-09T15:09:43.205Z,140
2017-09-09T15:10:53.593Z,135
2017-09-09T15:12:03.958Z,135
2017-09-09T15:13:14.068Z,135
2017-09-09T15:14:24.122Z,135
2017-09-09T15:15:36.674Z,130
2017-09-09T15:16:47.030Z,130
2017-09-09T15:17:57.406Z,130
2017-09-09T15:19:07.825Z,125
2017-09-09T15:20:25.138Z,125
2017-09-09T15:21:35.482Z,125
2017-09-09T15:22:45.843Z,120
2017-09-09T15:23:56.192Z,120
2017-09-09T15:25:06.558Z,120
2017-09-09T15:26:16.602Z,115
2017-09-09T15:27:26.973Z,115
2017-09-09T15:28:37.340Z,115
2017-09-09T15:29:49.189Z,110
2017-09-09T15:30:59.555Z,110
2017-09-09T15:32:09.287Z,105
2017-09-09T15:33:19.351Z,105
2017-09-09T15:34:29.714Z,105
2017-09-09T15:35:39.821Z,100
2017-09-09T15:36:49.576Z,100
2017-09-09T15:37:59.935Z,100
2017-09-09T15:39:10.336Z,95
2017-09-09T15:40:20.697Z,95
2017-09-09T15:41:31.115Z,95
2017-09-09T15:42:41.151Z,90
2017-09-09T15:43:51.205Z,90
2017-09-09T15:45:01.247Z,90
2017-09-09T15:46:11.639Z,85
2017-09-09T15:47:22.048Z,80
2017-09-09T15:48:32.414Z,80
2017-09-09T15:49:42.468Z,75
2017-09-09T15:50:52.830Z,75
2017-09-09T15:52:02.870Z,75
2017-09-09T15:53:13.217Z,80
2017-09-09T15:54:23.579Z,70
2017-09-09T15:55:34.746Z,70
2017-09-09T15:56:46.313Z,65
2017-09-09T15:57:56.685Z,65
2017-09-09T15:59:07.037Z,65
2017-09-09T16:00:16.774Z,60
2017-09-09T16:01:27.143Z,60
2017-09-09T16:02:37.518Z,60
2017-09-09T16:03:49.556Z,55
2017-09-09T16:04:59.924Z,55
2017-09-09T16:06:09.665Z,60
2017-09-09T16:07:20.005Z,60
2017-09-09T16:08:30.394Z,55
2017-09-09T16:09:40.445Z,55
2017-09-09T16:10:50.811Z,55
2017-09-09T16:12:01.188Z,55
2017-09-09T16:13:11.543Z,50
2017-09-09T16:14:21.907Z,50
2017-09-09T16:15:32.298Z,50
2017-09-09T16:16:42.694Z,50
2017-09-09T16:17:53.063Z,50
2017-09-09T16:19:03.408Z,50
2017-09-09T16:20:13.772Z,50
2017-09-09T16:21:24.146Z,50
2017-09-09T16:22:34.554Z,50
2017-09-09T16:23:45.212Z,45
2017-09-09T16:24:55.559Z,45
2017-09-09T16:26:05.938Z,45
2017-09-09T16:27:16.295Z,45
2017-09-09T16:28:26.716Z,45
2017-09-09T16:29:37.096Z,45
2017-09-09T16:30:47.476Z,45
2017-09-09T16:31:57.847Z,45
2017-09-09T16:33:07.888Z,45
2017-09-09T16:34:18.263Z,40
2017-09-09T16:35:28.305Z,40
2017-09-09T16:36:38.359Z,40
2017-09-09T16:37:48.429Z,40
2017-09-09T16:38:58.794Z,40
2017-09-09T16:40:09.154Z,40
2017-09-09T16:41:19.238Z,40
2017-09-09T16:42:28.982Z,40
2017-09-09T16:43:38.740Z,35
2017-09-09T16:44:49.121Z,35
2017-09-09T16:45:59.236Z,35
2017-09-09T16:47:09.350Z,35
2017-09-09T16:48:19.727Z,30
2017-09-09T16:49:30.113Z,30
2017-09-09T16:50:40.491Z,30
2017-09-09T16:51:50.865Z,25
2017-09-09T16:53:01.250Z,25
2017-09-09T16:54:11.295Z,25
2017-09-09T16:55:21.660Z,25
2017-09-09T16:56:32.034Z,20
2017-09-09T16:57:43.399Z,20
2017-09-09T16:58:53.753Z,20
2017-09-09T17:00:04.129Z,20
2017-09-09T17:01:14.477Z,15
2017-09-09T17:02:26.296Z,15
2017-09-09T17:03:36.333Z,15